»·PEaware :: N503AM KPAE-KHQM

N503AM :: KPAE-KHQM

FLIGHT INFORMATION

Flight Status: Arrived
Operator: Privately registered:
United States
More flights under this callsign
Pilot: Gary H. (18965)
Aircraft: CESSNA 172 SKYHAWK
(C172)
More flights by this aircraft type
Origin: KPAE Paine Field/Snohomish Co.
United States
Destination: KHQM Bowerman
United States
More flights between these airports :: More routes between these airports
Route: PAE V287 CARRO V27 ULESS
File this flight plan on PilotEdge
Remarks:
Altitude:
(Current/Filed)
6,000ft
Speed:
(Current/Filed)
110kts
Departed: 03-Nov-20 06:40 PM
Arrived: 03-Nov-20 07:45 PM
Distance/Time
Traveled:
87nm/1:04
Distance/Time
To Go:
Arrived

Flight Plot

Page will automatically refresh every two minutes.

Flight plan parsing failed; only flown route is shown


Map Options




Map Legend


Flown Route
Filed Route
Departure Airport
Arrival Airport
Navaid (VOR, NDB)
Fix

Horizontal Profiles

Position Reports

Time Latitude Longitude Heading Altitude Ground
Speed
03-Nov-20 18:21 47.907526 -122.278876 135 591ft 0kts
03-Nov-20 18:22 47.907526 -122.278876 135 591ft 0kts
03-Nov-20 18:23 47.907526 -122.278876 135 591ft 0kts
03-Nov-20 18:24 47.907526 -122.278876 135 591ft 0kts
03-Nov-20 18:25 47.907526 -122.278876 135 591ft 0kts
03-Nov-20 18:26 47.907526 -122.278876 135 591ft 0kts
03-Nov-20 18:27 47.907526 -122.278876 135 591ft 0kts
03-Nov-20 18:28 47.907526 -122.278876 135 591ft 0kts
03-Nov-20 18:29 47.907613 -122.279685 307 590ft 11kts
03-Nov-20 18:30 47.908173 -122.280455 312 587ft 0kts
03-Nov-20 18:31 47.908205 -122.280509 310 587ft 4kts
03-Nov-20 18:32 47.912281 -122.283460 358 566ft 33kts
03-Nov-20 18:33 47.921103 -122.284005 1 549ft 7kts
03-Nov-20 18:34 47.921408 -122.284410 291 548ft 0kts
03-Nov-20 18:35 47.921408 -122.284410 291 548ft 0kts
03-Nov-20 18:36 47.921408 -122.284410 291 548ft 0kts
03-Nov-20 18:37 47.921408 -122.284410 291 548ft 0kts
03-Nov-20 18:38 47.921441 -122.284599 275 548ft 6kts
03-Nov-20 18:39 47.909550 -122.285225 177 896ft 75kts
03-Nov-20 18:40 47.887633 -122.284000 178 1698ft 82kts
03-Nov-20 18:41 47.864566 -122.282462 179 2497ft 83kts
03-Nov-20 18:42 47.841869 -122.280200 178 3290ft 81kts
03-Nov-20 18:43 47.819791 -122.277402 181 4077ft 78kts
03-Nov-20 18:44 47.801785 -122.293582 210 4848ft 74kts
03-Nov-20 18:45 47.785374 -122.311041 212 5602ft 73kts
03-Nov-20 18:46 47.768239 -122.329428 213 6001ft 82kts
03-Nov-20 18:47 47.748890 -122.350572 214 6005ft 88kts
03-Nov-20 18:48 47.729160 -122.372172 213 6004ft 88kts
03-Nov-20 18:49 47.709365 -122.394115 213 6003ft 89kts
03-Nov-20 18:50 47.689409 -122.416534 213 6001ft 90kts
03-Nov-20 18:51 47.669314 -122.438997 213 5999ft 90kts
03-Nov-20 18:52 47.649107 -122.461211 213 5996ft 90kts
03-Nov-20 18:53 47.628761 -122.483156 213 5991ft 90kts
03-Nov-20 18:54 47.608393 -122.504703 213 5985ft 90kts
03-Nov-20 18:55 47.587910 -122.525947 213 5978ft 89kts
03-Nov-20 18:56 47.566786 -122.547387 213 5972ft 93kts
03-Nov-20 18:57 47.545831 -122.569250 217 5958ft 91kts
03-Nov-20 18:58 47.526389 -122.592901 218 5945ft 90kts
03-Nov-20 18:59 47.506996 -122.615120 216 6017ft 84kts
03-Nov-20 19:00 47.487556 -122.636548 217 6006ft 89kts
03-Nov-20 19:01 47.467403 -122.658156 216 5997ft 89kts
03-Nov-20 19:02 47.447117 -122.679931 218 5997ft 90kts
03-Nov-20 19:03 47.427670 -122.703160 219 5996ft 90kts
03-Nov-20 19:04 47.408128 -122.726422 219 5995ft 90kts
03-Nov-20 19:05 47.388599 -122.749581 219 5993ft 90kts
03-Nov-20 19:06 47.369016 -122.772756 219 5990ft 90kts
03-Nov-20 19:07 47.349482 -122.795899 219 5986ft 90kts
03-Nov-20 19:08 47.330026 -122.819035 218 5981ft 89kts
03-Nov-20 19:09 47.310632 -122.842218 218 5975ft 89kts
03-Nov-20 19:10 47.291426 -122.865476 225 5999ft 86kts
03-Nov-20 19:11 47.282144 -122.897764 243 6081ft 87kts
03-Nov-20 19:12 47.272619 -122.931259 243 6076ft 89kts
03-Nov-20 19:13 47.262087 -122.964168 243 6070ft 89kts
03-Nov-20 19:14 47.251865 -122.997536 249 6062ft 89kts
03-Nov-20 19:15 47.242357 -123.031645 252 6057ft 89kts
03-Nov-20 19:16 47.233250 -123.065930 252 6052ft 90kts
03-Nov-20 19:17 47.223959 -123.100443 255 6047ft 91kts
03-Nov-20 19:18 47.214254 -123.136185 255 5985ft 96kts
03-Nov-20 19:20 47.205510 -123.172809 258 5979ft 93kts
03-Nov-20 19:21 47.197087 -123.209106 258 5976ft 93kts
03-Nov-20 19:22 47.188662 -123.245270 258 5971ft 93kts
03-Nov-20 19:23 47.179853 -123.281384 256 5967ft 94kts
03-Nov-20 19:24 47.170293 -123.317356 256 5961ft 94kts
03-Nov-20 19:25 47.160721 -123.353262 256 5955ft 94kts
03-Nov-20 19:26 47.151382 -123.388958 255 5947ft 92kts
03-Nov-20 19:27 47.143201 -123.422887 256 5422ft 89kts
03-Nov-20 19:28 47.135745 -123.457885 256 4713ft 90kts
03-Nov-20 19:29 47.120379 -123.487742 228 4002ft 95kts
03-Nov-20 19:30 47.101452 -123.514618 227 3286ft 93kts
03-Nov-20 19:31 47.083405 -123.540646 226 2900ft 88kts
03-Nov-20 19:32 47.066748 -123.565856 223 2878ft 84kts
03-Nov-20 19:33 47.050147 -123.588907 221 2892ft 82kts
03-Nov-20 19:34 47.033416 -123.612200 218 2875ft 82kts
03-Nov-20 19:35 47.016943 -123.634705 220 2900ft 82kts
03-Nov-20 19:36 47.008139 -123.665785 244 2734ft 88kts
03-Nov-20 19:36 47.002158 -123.694727 248 2370ft 91kts
03-Nov-20 19:38 46.996958 -123.735935 251 2118ft 83kts
03-Nov-20 19:38 46.992862 -123.762414 249 2116ft 77kts
03-Nov-20 19:40 46.988250 -123.798417 248 2111ft 67kts
03-Nov-20 19:40 46.985060 -123.821552 252 1820ft 72kts
03-Nov-20 19:41 46.981817 -123.852173 250 1335ft 78kts
03-Nov-20 19:42 46.977769 -123.886073 253 723ft 85kts
03-Nov-20 19:43 46.974240 -123.912995 249 279ft 62kts
03-Nov-20 19:44 46.971957 -123.933402 344 24ft 20kts

Navigation Log

Ident Type
Flight plan parsing failed, navigation log unavailable